createdAt,value
2022-08-09T00:02:43.053Z,17.17
2022-08-09T00:06:51.890Z,17.14
2022-08-09T00:10:54.488Z,17.10
2022-08-09T00:15:06.313Z,17.05
2022-08-09T00:19:10.508Z,17.02
2022-08-09T00:23:55.256Z,16.98
2022-08-09T00:27:36.124Z,16.95
2022-08-09T00:31:59.630Z,16.92
2022-08-09T00:36:00.910Z,16.90
2022-08-09T00:40:12.714Z,16.87
2022-08-09T00:44:25.856Z,16.84
2022-08-09T00:48:28.671Z,16.81
2022-08-09T00:52:31.201Z,16.78
2022-08-09T00:56:35.939Z,16.75
2022-08-09T01:00:40.697Z,16.70
2022-08-09T01:05:05.297Z,16.67
2022-08-09T01:09:23.731Z,16.64
2022-08-09T01:13:58.768Z,16.62
2022-08-09T01:18:14.475Z,16.60
2022-08-09T01:22:32.443Z,16.53
2022-08-09T01:26:59.318Z,16.49
2022-08-09T01:31:06.168Z,16.46
2022-08-09T01:35:37.914Z,16.42
2022-08-09T01:39:44.429Z,16.40
2022-08-09T01:43:52.572Z,16.35
2022-08-09T01:47:56.933Z,16.35
2022-08-09T01:52:07.441Z,16.34
2022-08-09T01:56:11.420Z,16.33
2022-08-09T02:00:34.914Z,16.32
2022-08-09T02:04:40.610Z,16.31
2022-08-09T02:08:58.600Z,16.29
2022-08-09T02:13:05.217Z,16.28
2022-08-09T02:17:59.830Z,16.27
2022-08-09T02:21:39.491Z,16.23
2022-08-09T02:25:52.725Z,16.21
2022-08-09T02:29:59.093Z,16.20
2022-08-09T02:34:13.333Z,16.16
2022-08-09T02:38:31.497Z,16.16
2022-08-09T02:42:39.454Z,16.14
2022-08-09T02:46:43.502Z,16.15
2022-08-09T02:50:56.143Z,16.11
2022-08-09T02:55:03.174Z,16.09
2022-08-09T02:59:26.471Z,16.06
2022-08-09T03:04:17.390Z,16.07
2022-08-09T03:08:03.775Z,16.06
2022-08-09T03:12:10.970Z,16.04
2022-08-09T03:16:19.181Z,16.01
2022-08-09T03:20:22.120Z,15.99
2022-08-09T03:24:42.827Z,15.97
2022-08-09T03:28:55.066Z,15.94
2022-08-09T03:32:58.561Z,15.94
2022-08-09T03:37:02.255Z,15.92
2022-08-09T03:41:15.666Z,15.90
2022-08-09T03:46:03.342Z,15.88
2022-08-09T03:49:57.676Z,15.86
2022-08-09T03:53:59.788Z,15.85
2022-08-09T03:58:06.576Z,15.82
2022-08-09T04:02:19.814Z,15.80
2022-08-09T04:06:29.065Z,15.77
2022-08-09T04:10:31.342Z,15.75
2022-08-09T04:14:53.246Z,15.71
2022-08-09T04:18:54.839Z,15.70
2022-08-09T04:22:56.578Z,15.69
2022-08-09T04:27:00.786Z,15.69
2022-08-09T04:31:08.214Z,15.67
2022-08-09T04:35:12.820Z,15.69
2022-08-09T04:39:14.803Z,15.69
2022-08-09T04:43:18.042Z,15.73
2022-08-09T04:47:19.687Z,15.80
2022-08-09T04:51:21.860Z,15.82
2022-08-09T04:55:24.618Z,15.87
2022-08-09T04:59:26.481Z,15.91
2022-08-09T05:03:42.606Z,15.95
2022-08-09T05:07:46.529Z,16.00
2022-08-09T05:11:48.280Z,16.03
2022-08-09T05:15:56.505Z,16.08
2022-08-09T05:19:58.729Z,16.12
2022-08-09T05:24:03.667Z,16.18
2022-08-09T05:28:05.903Z,16.28
2022-08-09T05:32:08.389Z,16.37
2022-08-09T05:36:11.976Z,16.45
2022-08-09T05:40:18.349Z,16.55
2022-08-09T05:44:22.063Z,16.61
2022-08-09T05:48:33.331Z,16.66
2022-08-09T05:52:36.145Z,16.70
2022-08-09T05:56:54.541Z,16.76
2022-08-09T06:00:58.252Z,16.82
2022-08-09T06:05:00.014Z,16.84
2022-08-09T06:09:01.770Z,16.90
2022-08-09T06:13:12.394Z,16.96
2022-08-09T06:17:20.650Z,17.02
2022-08-09T06:21:22.280Z,17.09
2022-08-09T06:25:24.561Z,17.13
2022-08-09T06:29:26.960Z,17.19
2022-08-09T06:33:39.629Z,17.26
2022-08-09T06:37:53.312Z,17.33
2022-08-09T06:42:08.972Z,17.41
2022-08-09T06:46:39.123Z,17.54
2022-08-09T06:50:35.191Z,17.58
2022-08-09T06:54:37.192Z,17.64
2022-08-09T07:00:50.918Z,17.69
2022-08-09T07:03:05.969Z,17.82
2022-08-09T07:07:12.019Z,17.89
2022-08-09T07:11:34.348Z,17.90
2022-08-09T07:16:38.679Z,17.99
2022-08-09T07:20:13.034Z,18.10
2022-08-09T07:24:14.652Z,18.21
2022-08-09T07:28:19.108Z,18.33
2022-08-09T07:32:32.919Z,18.46
2022-08-09T07:36:36.396Z,18.51
2022-08-09T07:41:08.284Z,18.60
2022-08-09T07:45:06.556Z,18.69
2022-08-09T07:49:21.961Z,18.69
2022-08-09T07:54:05.720Z,18.78
2022-08-09T07:57:48.994Z,18.87
2022-08-09T08:01:53.029Z,18.98
2022-08-09T08:05:57.848Z,19.17
2022-08-09T08:10:08.516Z,19.23
2022-08-09T08:14:12.267Z,19.23
2022-08-09T08:18:14.411Z,19.29
2022-08-09T08:22:16.317Z,19.34
2022-08-09T08:26:18.466Z,19.38
2022-08-09T08:30:28.871Z,19.38
2022-08-09T08:34:30.642Z,19.38
2022-08-09T08:38:35.180Z,19.47
2022-08-09T08:42:37.930Z,19.61
2022-08-09T08:46:59.996Z,19.69
2022-08-09T08:51:02.831Z,19.85
2022-08-09T08:55:05.901Z,19.91
2022-08-09T08:59:18.977Z,19.96
2022-08-09T09:03:25.296Z,20.00
2022-08-09T09:07:36.857Z,20.08
2022-08-09T09:11:41.332Z,20.13
2022-08-09T09:15:43.107Z,20.15
2022-08-09T09:19:52.226Z,20.22
2022-08-09T09:23:57.534Z,20.24
2022-08-09T09:28:05.906Z,20.29
2022-08-09T09:32:15.440Z,20.40
2022-08-09T09:36:20.813Z,20.53
2022-08-09T09:40:41.882Z,20.57
2022-08-09T09:44:56.954Z,20.57
2022-08-09T09:49:06.515Z,20.66
2022-08-09T09:53:14.268Z,20.72
2022-08-09T09:58:01.601Z,20.76
2022-08-09T10:01:47.333Z,20.78
2022-08-09T10:06:03.522Z,20.75
2022-08-09T10:10:07.116Z,20.83
2022-08-09T10:14:30.579Z,20.91
2022-08-09T10:18:35.379Z,20.97
2022-08-09T10:22:39.217Z,20.97
2022-08-09T10:26:41.458Z,20.96
2022-08-09T10:35:05.676Z,21.09
2022-08-09T10:39:14.170Z,21.15
2022-08-09T10:43:20.567Z,21.17
2022-08-09T10:48:25.916Z,21.14
2022-08-09T10:52:00.190Z,21.15
2022-08-09T10:56:17.650Z,21.21
2022-08-09T11:00:36.652Z,21.24
2022-08-09T11:04:38.522Z,21.32
2022-08-09T11:09:15.503Z,21.39
2022-08-09T11:13:50.763Z,21.45
2022-08-09T11:17:42.054Z,21.53
2022-08-09T11:22:05.114Z,21.65
2022-08-09T11:26:32.225Z,21.65
2022-08-09T11:30:38.006Z,21.76
2022-08-09T11:34:44.074Z,21.80
2022-08-09T11:39:00.470Z,21.82
2022-08-09T11:43:02.949Z,21.81
2022-08-09T11:47:04.713Z,21.86
2022-08-09T11:52:53.989Z,21.92
2022-08-09T11:55:53.484Z,21.97
2022-08-09T12:00:12.864Z,22.06
2022-08-09T12:04:23.726Z,22.07
2022-08-09T12:08:34.253Z,22.17
2022-08-09T12:12:53.282Z,22.19
2022-08-09T12:16:56.427Z,22.17
2022-08-09T12:21:02.852Z,22.14
2022-08-09T12:25:12.596Z,22.19
2022-08-09T12:29:33.381Z,22.32
2022-08-09T12:33:58.447Z,22.34
2022-08-09T12:38:17.094Z,22.37
2022-08-09T12:42:44.082Z,22.40
2022-08-09T12:46:50.119Z,22.53
2022-08-09T12:50:52.090Z,22.61
2022-08-09T12:56:11.386Z,22.68
2022-08-09T12:59:21.055Z,22.72
2022-08-09T13:03:56.698Z,22.67
2022-08-09T13:08:21.149Z,22.77
2022-08-09T13:13:08.833Z,22.86
2022-08-09T13:17:44.456Z,22.95
2022-08-09T13:22:37.825Z,23.02
2022-08-09T13:25:59.357Z,22.81
2022-08-09T13:30:49.487Z,22.80
2022-08-09T13:34:31.142Z,22.87
2022-08-09T13:38:56.671Z,22.79
2022-08-09T13:42:55.964Z,22.93
2022-08-09T13:47:26.888Z,23.06
2022-08-09T13:51:19.676Z,23.24
2022-08-09T13:55:22.912Z,23.33
2022-08-09T13:59:25.135Z,23.53
2022-08-09T14:04:02.713Z,23.57
2022-08-09T14:07:48.698Z,23.69
2022-08-09T14:11:53.643Z,23.68
2022-08-09T14:16:09.834Z,23.67
2022-08-09T14:20:12.413Z,23.63
2022-08-09T14:24:21.933Z,23.66
2022-08-09T14:28:33.571Z,23.72
2022-08-09T14:32:35.193Z,23.73
2022-08-09T14:36:43.048Z,23.70
2022-08-09T14:41:01.113Z,23.75
2022-08-09T14:46:39.689Z,23.75
2022-08-09T14:49:34.622Z,23.76
2022-08-09T14:53:52.499Z,23.83
2022-08-09T14:57:54.308Z,23.82
2022-08-09T15:01:57.664Z,23.76
2022-08-09T15:06:01.774Z,23.74
2022-08-09T15:10:11.193Z,23.75
2022-08-09T15:14:19.092Z,23.75
2022-08-09T15:18:21.025Z,23.71
2022-08-09T15:22:26.161Z,23.69
2022-08-09T15:26:30.924Z,23.70
2022-08-09T15:30:57.430Z,23.72
2022-08-09T15:34:55.393Z,23.78
2022-08-09T15:39:00.067Z,23.80
2022-08-09T15:43:02.395Z,23.84
2022-08-09T15:47:05.283Z,23.80
2022-08-09T15:51:11.408Z,23.83
2022-08-09T15:55:29.034Z,23.87
2022-08-09T15:59:37.500Z,23.85
2022-08-09T16:03:41.775Z,23.82
2022-08-09T16:07:45.697Z,23.78
2022-08-09T16:11:57.158Z,23.73
2022-08-09T16:16:04.786Z,23.72
2022-08-09T16:20:15.011Z,23.69
2022-08-09T16:24:30.239Z,23.70
2022-08-09T16:28:35.748Z,23.72
2022-08-09T16:32:56.223Z,23.74
2022-08-09T16:36:59.911Z,23.79
2022-08-09T16:41:03.592Z,23.86
2022-08-09T16:45:07.814Z,23.87
2022-08-09T16:49:18.809Z,23.88
2022-08-09T16:53:32.608Z,23.82
2022-08-09T16:58:08.154Z,23.76
2022-08-09T17:01:57.864Z,23.78
2022-08-09T17:06:07.819Z,23.84
2022-08-09T17:10:17.900Z,23.88
2022-08-09T17:14:27.432Z,23.91
2022-08-09T17:18:30.432Z,23.89
2022-08-09T17:22:32.867Z,23.93
2022-08-09T17:26:38.325Z,23.93
2022-08-09T17:30:40.575Z,23.91
2022-08-09T17:35:00.753Z,23.85
2022-08-09T17:39:04.209Z,23.70
2022-08-09T17:43:32.255Z,23.56
2022-08-09T17:47:31.723Z,23.45
2022-08-09T17:51:51.766Z,23.30
2022-08-09T17:55:59.699Z,23.20
2022-08-09T18:00:05.570Z,23.13
2022-08-09T18:04:13.729Z,23.08
2022-08-09T18:08:16.186Z,23.02
2022-08-09T18:12:19.953Z,22.94
2022-08-09T18:16:30.228Z,22.82
2022-08-09T18:20:54.251Z,22.76
2022-08-09T18:24:54.362Z,22.73
2022-08-09T18:30:40.546Z,22.65
2022-08-09T18:33:23.030Z,22.54
2022-08-09T18:37:48.542Z,22.45
2022-08-09T18:41:52.952Z,22.39
2022-08-09T18:46:47.764Z,22.31
2022-08-09T18:50:16.943Z,22.22
2022-08-09T18:54:28.747Z,22.17
2022-08-09T18:58:33.225Z,22.11
2022-08-09T19:02:35.221Z,22.02
2022-08-09T19:06:38.639Z,21.90
2022-08-09T19:10:40.876Z,21.81
2022-08-09T19:14:43.572Z,21.68
2022-08-09T19:18:45.766Z,21.59
2022-08-09T19:22:54.203Z,21.51
2022-08-09T19:26:57.039Z,21.44
2022-08-09T19:30:58.763Z,21.38
2022-08-09T19:35:01.603Z,21.34
2022-08-09T19:39:05.787Z,21.26
2022-08-09T19:43:10.060Z,21.21
2022-08-09T19:47:23.754Z,21.15
2022-08-09T19:51:30.878Z,21.10
2022-08-09T19:55:53.001Z,21.03
2022-08-09T20:00:06.850Z,20.95
2022-08-09T20:04:20.680Z,20.89
2022-08-09T20:08:35.414Z,20.85
2022-08-09T20:12:37.433Z,20.78
2022-08-09T20:16:49.861Z,20.72
2022-08-09T20:20:57.277Z,20.67
2022-08-09T20:24:59.090Z,20.63
2022-08-09T20:29:10.081Z,20.58
2022-08-09T20:33:12.982Z,20.53
2022-08-09T20:37:21.439Z,20.46
2022-08-09T20:41:34.722Z,20.39
2022-08-09T20:46:01.711Z,20.33
2022-08-09T20:50:01.045Z,20.29
2022-08-09T20:54:03.714Z,20.22
2022-08-09T20:58:20.170Z,20.17
2022-08-09T21:02:22.542Z,20.14
2022-08-09T21:06:25.142Z,20.08
2022-08-09T21:10:33.159Z,20.02
2022-08-09T21:14:40.682Z,19.98
2022-08-09T21:19:01.446Z,19.94
2022-08-09T21:23:09.310Z,19.90
2022-08-09T21:27:52.094Z,19.86
2022-08-09T21:31:48.798Z,19.80
2022-08-09T21:35:52.614Z,19.76
2022-08-09T21:39:54.574Z,19.71
2022-08-09T21:43:58.243Z,19.67
2022-08-09T21:47:59.984Z,19.60
2022-08-09T21:52:01.656Z,19.55
2022-08-09T21:56:03.701Z,19.53
2022-08-09T22:00:10.624Z,19.51
2022-08-09T22:04:14.323Z,19.46
2022-08-09T22:08:25.533Z,19.42
2022-08-09T22:12:30.613Z,19.34
2022-08-09T22:16:37.171Z,19.28
2022-08-09T22:20:40.025Z,19.25
2022-08-09T22:24:53.542Z,19.21
2022-08-09T22:29:06.810Z,19.13
2022-08-09T22:33:09.878Z,19.09
2022-08-09T22:37:13.599Z,19.01
2022-08-09T22:41:15.516Z,18.95
2022-08-09T22:48:12.785Z,18.90
2022-08-09T22:49:40.393Z,18.86
2022-08-09T22:53:58.422Z,18.83
2022-08-09T22:58:04.957Z,18.80
2022-08-09T23:02:06.637Z,18.73
2022-08-09T23:06:08.442Z,18.67
2022-08-09T23:10:15.892Z,18.63
2022-08-09T23:14:17.763Z,18.59
2022-08-09T23:18:41.025Z,18.56
2022-08-09T23:22:42.686Z,18.52
2022-08-09T23:26:44.286Z,18.46
2022-08-09T23:30:51.402Z,18.41
2022-08-09T23:34:53.803Z,18.36
2022-08-09T23:38:55.707Z,18.32
2022-08-09T23:42:57.389Z,18.27
2022-08-09T23:46:59.090Z,18.23
2022-08-09T23:51:00.751Z,18.18
2022-08-09T23:55:02.358Z,18.15
2022-08-09T23:59:05.833Z,18.13
